sensor_id;sensor_type;location;lat;lon;timestamp;temperature;humidity
16116;DHT22;8162;47.104;15.432;2022-12-11T00:00:18;2.20;96.30
16116;DHT22;8162;47.104;15.432;2022-12-11T00:02:44;2.20;93.90
16116;DHT22;8162;47.104;15.432;2022-12-11T00:05:10;2.20;92.30
16116;DHT22;8162;47.104;15.432;2022-12-11T00:07:36;2.20;93.80
16116;DHT22;8162;47.104;15.432;2022-12-11T00:10:02;2.20;95.30
16116;DHT22;8162;47.104;15.432;2022-12-11T00:12:29;2.10;95.20
16116;DHT22;8162;47.104;15.432;2022-12-11T00:14:55;2.20;96.00
16116;DHT22;8162;47.104;15.432;2022-12-11T00:17:21;2.10;95.60
16116;DHT22;8162;47.104;15.432;2022-12-11T00:19:46;2.10;94.80
16116;DHT22;8162;47.104;15.432;2022-12-11T00:22:12;2.20;95.80
16116;DHT22;8162;47.104;15.432;2022-12-11T00:24:38;2.20;95.70
16116;DHT22;8162;47.104;15.432;2022-12-11T00:27:04;2.20;94.00
16116;DHT22;8162;47.104;15.432;2022-12-11T00:29:29;2.20;95.20
16116;DHT22;8162;47.104;15.432;2022-12-11T00:31:55;2.20;92.80
16116;DHT22;8162;47.104;15.432;2022-12-11T00:34:21;2.20;93.70
16116;DHT22;8162;47.104;15.432;2022-12-11T00:36:46;2.20;92.60
16116;DHT22;8162;47.104;15.432;2022-12-11T00:39:12;2.10;92.10
16116;DHT22;8162;47.104;15.432;2022-12-11T00:41:38;2.10;91.10
16116;DHT22;8162;47.104;15.432;2022-12-11T00:44:03;2.10;90.80
16116;DHT22;8162;47.104;15.432;2022-12-11T00:46:29;2.10;92.70
16116;DHT22;8162;47.104;15.432;2022-12-11T00:48:55;2.10;94.30
16116;DHT22;8162;47.104;15.432;2022-12-11T00:51:20;2.10;94.70
16116;DHT22;8162;47.104;15.432;2022-12-11T00:53:46;2.10;95.10
16116;DHT22;8162;47.104;15.432;2022-12-11T00:56:17;2.10;92.20
16116;DHT22;8162;47.104;15.432;2022-12-11T00:58:44;2.10;93.80
16116;DHT22;8162;47.104;15.432;2022-12-11T01:01:13;2.10;95.50
16116;DHT22;8162;47.104;15.432;2022-12-11T01:03:39;2.10;95.40
16116;DHT22;8162;47.104;15.432;2022-12-11T01:06:05;2.20;95.70
16116;DHT22;8162;47.104;15.432;2022-12-11T01:08:31;2.20;95.00
16116;DHT22;8162;47.104;15.432;2022-12-11T01:11:01;2.20;94.10
16116;DHT22;8162;47.104;15.432;2022-12-11T01:13:27;2.10;93.70
16116;DHT22;8162;47.104;15.432;2022-12-11T01:15:53;2.20;93.90
16116;DHT22;8162;47.104;15.432;2022-12-11T01:18:19;2.10;93.30
16116;DHT22;8162;47.104;15.432;2022-12-11T01:20:44;2.10;92.30
16116;DHT22;8162;47.104;15.432;2022-12-11T01:23:12;2.10;91.40
16116;DHT22;8162;47.104;15.432;2022-12-11T01:25:37;2.10;90.30
16116;DHT22;8162;47.104;15.432;2022-12-11T01:28:04;2.10;90.20
16116;DHT22;8162;47.104;15.432;2022-12-11T01:30:29;2.00;92.40
16116;DHT22;8162;47.104;15.432;2022-12-11T01:32:55;2.00;90.70
16116;DHT22;8162;47.104;15.432;2022-12-11T01:35:21;2.00;93.20
16116;DHT22;8162;47.104;15.432;2022-12-11T01:37:47;2.00;93.50
16116;DHT22;8162;47.104;15.432;2022-12-11T01:40:15;2.00;93.80
16116;DHT22;8162;47.104;15.432;2022-12-11T01:42:42;2.00;90.00
16116;DHT22;8162;47.104;15.432;2022-12-11T01:45:30;2.10;87.10
16116;DHT22;8162;47.104;15.432;2022-12-11T01:50:38;2.00;89.90
16116;DHT22;8162;47.104;15.432;2022-12-11T01:53:08;2.00;91.50
16116;DHT22;8162;47.104;15.432;2022-12-11T01:55:37;2.10;90.70
16116;DHT22;8162;47.104;15.432;2022-12-11T01:58:04;2.10;85.10
16116;DHT22;8162;47.104;15.432;2022-12-11T02:00:30;2.10;86.70
16116;DHT22;8162;47.104;15.432;2022-12-11T02:02:56;2.10;87.90
16116;DHT22;8162;47.104;15.432;2022-12-11T02:05:21;2.10;90.60
16116;DHT22;8162;47.104;15.432;2022-12-11T02:07:51;2.10;90.30
16116;DHT22;8162;47.104;15.432;2022-12-11T02:10:18;2.10;85.70
16116;DHT22;8162;47.104;15.432;2022-12-11T02:12:52;2.10;89.60
16116;DHT22;8162;47.104;15.432;2022-12-11T02:24:06;2.10;92.60
16116;DHT22;8162;47.104;15.432;2022-12-11T02:26:54;2.10;87.00
16116;DHT22;8162;47.104;15.432;2022-12-11T02:29:34;2.10;90.40
16116;DHT22;8162;47.104;15.432;2022-12-11T02:32:12;2.10;90.10
16116;DHT22;8162;47.104;15.432;2022-12-11T02:34:43;2.10;89.00
16116;DHT22;8162;47.104;15.432;2022-12-11T02:37:15;2.10;86.60
16116;DHT22;8162;47.104;15.432;2022-12-11T02:39:44;2.10;79.60
16116;DHT22;8162;47.104;15.432;2022-12-11T02:42:12;2.20;83.80
16116;DHT22;8162;47.104;15.432;2022-12-11T02:44:39;2.10;82.30
16116;DHT22;8162;47.104;15.432;2022-12-11T02:47:09;2.10;85.00
16116;DHT22;8162;47.104;15.432;2022-12-11T02:49:36;2.10;81.30
16116;DHT22;8162;47.104;15.432;2022-12-11T02:52:03;2.20;82.60
16116;DHT22;8162;47.104;15.432;2022-12-11T02:54:32;2.10;84.10
16116;DHT22;8162;47.104;15.432;2022-12-11T02:57:08;2.10;83.50
16116;DHT22;8162;47.104;15.432;2022-12-11T02:59:39;2.20;86.00
16116;DHT22;8162;47.104;15.432;2022-12-11T03:02:06;2.20;78.60
16116;DHT22;8162;47.104;15.432;2022-12-11T03:04:34;2.20;79.80
16116;DHT22;8162;47.104;15.432;2022-12-11T03:07:08;2.20;79.50
16116;DHT22;8162;47.104;15.432;2022-12-11T03:09:43;2.10;79.70
16116;DHT22;8162;47.104;15.432;2022-12-11T03:12:11;2.10;82.20
16116;DHT22;8162;47.104;15.432;2022-12-11T03:14:38;2.10;80.60
16116;DHT22;8162;47.104;15.432;2022-12-11T03:17:15;2.10;81.00
16116;DHT22;8162;47.104;15.432;2022-12-11T03:22:21;2.00;82.80
16116;DHT22;8162;47.104;15.432;2022-12-11T03:24:59;1.90;86.40
16116;DHT22;8162;47.104;15.432;2022-12-11T03:30:16;1.90;80.20
16116;DHT22;8162;47.104;15.432;2022-12-11T03:33:01;1.90;81.60
16116;DHT22;8162;47.104;15.432;2022-12-11T03:35:33;1.90;77.60
16116;DHT22;8162;47.104;15.432;2022-12-11T03:38:04;1.90;78.40
16116;DHT22;8162;47.104;15.432;2022-12-11T03:40:31;1.90;81.20
16116;DHT22;8162;47.104;15.432;2022-12-11T03:42:59;1.90;80.00
16116;DHT22;8162;47.104;15.432;2022-12-11T03:45:27;1.80;80.90
16116;DHT22;8162;47.104;15.432;2022-12-11T03:47:55;1.70;81.30
16116;DHT22;8162;47.104;15.432;2022-12-11T03:50:23;1.70;80.90
16116;DHT22;8162;47.104;15.432;2022-12-11T03:52:51;1.60;83.40
16116;DHT22;8162;47.104;15.432;2022-12-11T03:55:18;1.60;81.70
16116;DHT22;8162;47.104;15.432;2022-12-11T03:57:45;1.50;82.90
16116;DHT22;8162;47.104;15.432;2022-12-11T04:00:14;1.50;83.20
16116;DHT22;8162;47.104;15.432;2022-12-11T04:02:41;1.50;79.30
16116;DHT22;8162;47.104;15.432;2022-12-11T04:05:07;1.50;80.90
16116;DHT22;8162;47.104;15.432;2022-12-11T04:07:33;1.50;80.50
16116;DHT22;8162;47.104;15.432;2022-12-11T04:09:59;1.40;81.50
16116;DHT22;8162;47.104;15.432;2022-12-11T04:12:24;1.40;83.20
16116;DHT22;8162;47.104;15.432;2022-12-11T04:14:50;1.50;80.50
16116;DHT22;8162;47.104;15.432;2022-12-11T04:17:29;1.40;80.50
16116;DHT22;8162;47.104;15.432;2022-12-11T04:20:13;1.50;79.20
16116;DHT22;8162;47.104;15.432;2022-12-11T04:22:58;1.50;77.50
16116;DHT22;8162;47.104;15.432;2022-12-11T04:25:42;1.50;79.10
16116;DHT22;8162;47.104;15.432;2022-12-11T04:28:08;1.50;79.30
16116;DHT22;8162;47.104;15.432;2022-12-11T04:30:33;1.50;78.10
16116;DHT22;8162;47.104;15.432;2022-12-11T04:32:59;1.50;78.90
16116;DHT22;8162;47.104;15.432;2022-12-11T04:35:25;1.50;77.10
16116;DHT22;8162;47.104;15.432;2022-12-11T04:37:51;1.50;83.00
16116;DHT22;8162;47.104;15.432;2022-12-11T04:40:18;1.50;77.90
16116;DHT22;8162;47.104;15.432;2022-12-11T04:42:44;1.50;77.10
16116;DHT22;8162;47.104;15.432;2022-12-11T04:45:11;1.50;77.20
16116;DHT22;8162;47.104;15.432;2022-12-11T04:47:38;1.50;79.50
16116;DHT22;8162;47.104;15.432;2022-12-11T04:50:07;1.50;79.90
16116;DHT22;8162;47.104;15.432;2022-12-11T04:52:33;1.50;77.80
16116;DHT22;8162;47.104;15.432;2022-12-11T04:54:58;1.50;77.30
16116;DHT22;8162;47.104;15.432;2022-12-11T04:57:24;1.50;75.20
16116;DHT22;8162;47.104;15.432;2022-12-11T04:59:50;1.60;75.70
16116;DHT22;8162;47.104;15.432;2022-12-11T05:02:16;1.60;75.00
16116;DHT22;8162;47.104;15.432;2022-12-11T05:04:42;1.60;70.70
16116;DHT22;8162;47.104;15.432;2022-12-11T05:07:08;1.60;72.30
16116;DHT22;8162;47.104;15.432;2022-12-11T05:09:34;1.60;73.90
16116;DHT22;8162;47.104;15.432;2022-12-11T05:12:00;1.60;73.90
16116;DHT22;8162;47.104;15.432;2022-12-11T05:14:27;1.70;69.70
16116;DHT22;8162;47.104;15.432;2022-12-11T05:16:57;1.70;70.70
16116;DHT22;8162;47.104;15.432;2022-12-11T05:19:23;1.70;69.90
16116;DHT22;8162;47.104;15.432;2022-12-11T05:21:48;1.80;73.10
16116;DHT22;8162;47.104;15.432;2022-12-11T05:24:14;1.80;70.90
16116;DHT22;8162;47.104;15.432;2022-12-11T05:26:40;1.70;75.30
16116;DHT22;8162;47.104;15.432;2022-12-11T05:29:06;1.80;71.00
16116;DHT22;8162;47.104;15.432;2022-12-11T05:31:31;1.80;66.60
16116;DHT22;8162;47.104;15.432;2022-12-11T05:33:57;1.80;74.10
16116;DHT22;8162;47.104;15.432;2022-12-11T05:36:28;1.80;71.10
16116;DHT22;8162;47.104;15.432;2022-12-11T05:38:54;1.80;74.70
16116;DHT22;8162;47.104;15.432;2022-12-11T05:41:23;1.80;67.00
16116;DHT22;8162;47.104;15.432;2022-12-11T05:43:49;1.80;69.00
16116;DHT22;8162;47.104;15.432;2022-12-11T05:46:17;1.80;67.50
16116;DHT22;8162;47.104;15.432;2022-12-11T05:48:45;1.90;67.30
16116;DHT22;8162;47.104;15.432;2022-12-11T05:51:12;1.90;74.40
16116;DHT22;8162;47.104;15.432;2022-12-11T05:53:39;1.90;72.70
16116;DHT22;8162;47.104;15.432;2022-12-11T05:56:11;1.90;69.30
16116;DHT22;8162;47.104;15.432;2022-12-11T05:58:37;1.90;70.40
16116;DHT22;8162;47.104;15.432;2022-12-11T06:01:15;1.90;74.70
16116;DHT22;8162;47.104;15.432;2022-12-11T06:03:41;1.90;69.00
16116;DHT22;8162;47.104;15.432;2022-12-11T06:06:07;1.90;67.10
16116;DHT22;8162;47.104;15.432;2022-12-11T06:08:34;1.90;69.60
16116;DHT22;8162;47.104;15.432;2022-12-11T06:11:00;1.90;64.50
16116;DHT22;8162;47.104;15.432;2022-12-11T06:13:25;2.00;66.40
16116;DHT22;8162;47.104;15.432;2022-12-11T06:15:51;2.00;65.10
16116;DHT22;8162;47.104;15.432;2022-12-11T06:18:17;2.00;66.50
16116;DHT22;8162;47.104;15.432;2022-12-11T06:20:43;2.00;62.90
16116;DHT22;8162;47.104;15.432;2022-12-11T06:23:08;2.00;67.40
16116;DHT22;8162;47.104;15.432;2022-12-11T06:25:37;2.00;65.20
16116;DHT22;8162;47.104;15.432;2022-12-11T06:28:03;2.00;69.00
16116;DHT22;8162;47.104;15.432;2022-12-11T06:30:29;2.00;66.40
16116;DHT22;8162;47.104;15.432;2022-12-11T06:32:56;2.10;62.80
16116;DHT22;8162;47.104;15.432;2022-12-11T06:35:22;2.10;68.40
16116;DHT22;8162;47.104;15.432;2022-12-11T06:37:48;2.00;63.90
16116;DHT22;8162;47.104;15.432;2022-12-11T06:40:14;2.10;60.80
16116;DHT22;8162;47.104;15.432;2022-12-11T06:42:40;2.10;63.20
16116;DHT22;8162;47.104;15.432;2022-12-11T06:45:06;2.00;68.70
16116;DHT22;8162;47.104;15.432;2022-12-11T06:47:32;2.00;64.00
16116;DHT22;8162;47.104;15.432;2022-12-11T06:49:58;2.00;62.50
16116;DHT22;8162;47.104;15.432;2022-12-11T06:52:25;2.10;64.80
16116;DHT22;8162;47.104;15.432;2022-12-11T06:54:54;2.00;70.20
16116;DHT22;8162;47.104;15.432;2022-12-11T06:57:20;2.00;67.40
16116;DHT22;8162;47.104;15.432;2022-12-11T06:59:46;2.10;63.70
16116;DHT22;8162;47.104;15.432;2022-12-11T07:02:13;2.10;61.80
16116;DHT22;8162;47.104;15.432;2022-12-11T07:04:39;2.10;63.70
16116;DHT22;8162;47.104;15.432;2022-12-11T07:07:06;2.10;62.00
16116;DHT22;8162;47.104;15.432;2022-12-11T07:09:31;2.10;66.00
16116;DHT22;8162;47.104;15.432;2022-12-11T07:11:57;2.10;61.70
16116;DHT22;8162;47.104;15.432;2022-12-11T07:14:23;2.10;65.30
16116;DHT22;8162;47.104;15.432;2022-12-11T07:16:49;2.10;63.30
16116;DHT22;8162;47.104;15.432;2022-12-11T07:19:14;2.00;67.10
16116;DHT22;8162;47.104;15.432;2022-12-11T07:21:40;2.10;65.90
16116;DHT22;8162;47.104;15.432;2022-12-11T07:24:06;2.00;66.40
16116;DHT22;8162;47.104;15.432;2022-12-11T07:26:32;2.10;65.00
16116;DHT22;8162;47.104;15.432;2022-12-11T07:28:58;2.20;65.20
16116;DHT22;8162;47.104;15.432;2022-12-11T07:31:26;2.20;64.50
16116;DHT22;8162;47.104;15.432;2022-12-11T07:33:54;2.20;62.10
16116;DHT22;8162;47.104;15.432;2022-12-11T07:36:20;2.20;63.50
16116;DHT22;8162;47.104;15.432;2022-12-11T07:38:45;2.10;65.70
16116;DHT22;8162;47.104;15.432;2022-12-11T07:41:13;2.20;60.50
16116;DHT22;8162;47.104;15.432;2022-12-11T07:43:40;2.20;61.60
16116;DHT22;8162;47.104;15.432;2022-12-11T07:46:09;2.20;63.00
16116;DHT22;8162;47.104;15.432;2022-12-11T07:48:37;2.20;63.90
16116;DHT22;8162;47.104;15.432;2022-12-11T07:51:27;2.20;61.00
16116;DHT22;8162;47.104;15.432;2022-12-11T07:53:58;2.20;62.30
16116;DHT22;8162;47.104;15.432;2022-12-11T07:56:24;2.20;62.20
16116;DHT22;8162;47.104;15.432;2022-12-11T07:58:50;2.30;62.30
16116;DHT22;8162;47.104;15.432;2022-12-11T08:01:18;2.30;57.90
16116;DHT22;8162;47.104;15.432;2022-12-11T08:03:44;2.40;60.30
16116;DHT22;8162;47.104;15.432;2022-12-11T08:06:10;2.40;60.80
16116;DHT22;8162;47.104;15.432;2022-12-11T08:08:36;2.40;59.70
16116;DHT22;8162;47.104;15.432;2022-12-11T08:11:03;2.50;57.40
16116;DHT22;8162;47.104;15.432;2022-12-11T08:13:29;2.50;64.10
16116;DHT22;8162;47.104;15.432;2022-12-11T08:15:55;2.50;63.20
16116;DHT22;8162;47.104;15.432;2022-12-11T08:18:21;2.50;63.80
16116;DHT22;8162;47.104;15.432;2022-12-11T08:20:47;2.50;64.60
16116;DHT22;8162;47.104;15.432;2022-12-11T08:23:12;2.50;62.80
16116;DHT22;8162;47.104;15.432;2022-12-11T08:25:38;2.50;58.70
16116;DHT22;8162;47.104;15.432;2022-12-11T08:28:04;2.50;60.60
16116;DHT22;8162;47.104;15.432;2022-12-11T08:30:30;2.50;60.30
16116;DHT22;8162;47.104;15.432;2022-12-11T08:32:57;2.50;60.60
16116;DHT22;8162;47.104;15.432;2022-12-11T08:35:24;2.70;57.40
16116;DHT22;8162;47.104;15.432;2022-12-11T08:37:50;2.70;59.30
16116;DHT22;8162;47.104;15.432;2022-12-11T08:40:15;2.80;62.60
16116;DHT22;8162;47.104;15.432;2022-12-11T08:42:41;2.80;63.70
16116;DHT22;8162;47.104;15.432;2022-12-11T08:45:07;2.80;61.70
16116;DHT22;8162;47.104;15.432;2022-12-11T08:47:33;2.90;59.70
16116;DHT22;8162;47.104;15.432;2022-12-11T08:49:59;3.00;58.70
16116;DHT22;8162;47.104;15.432;2022-12-11T08:52:24;3.00;57.40
16116;DHT22;8162;47.104;15.432;2022-12-11T08:54:50;3.00;61.90
16116;DHT22;8162;47.104;15.432;2022-12-11T08:57:16;3.00;55.00
16116;DHT22;8162;47.104;15.432;2022-12-11T08:59:41;3.10;59.30
16116;DHT22;8162;47.104;15.432;2022-12-11T09:02:10;3.10;61.50
16116;DHT22;8162;47.104;15.432;2022-12-11T09:04:36;3.00;58.40
16116;DHT22;8162;47.104;15.432;2022-12-11T09:07:02;3.00;58.60
16116;DHT22;8162;47.104;15.432;2022-12-11T09:09:27;3.10;58.60
16116;DHT22;8162;47.104;15.432;2022-12-11T09:11:53;3.10;60.00
16116;DHT22;8162;47.104;15.432;2022-12-11T09:14:19;3.20;55.90
16116;DHT22;8162;47.104;15.432;2022-12-11T09:16:44;3.20;61.40
16116;DHT22;8162;47.104;15.432;2022-12-11T09:19:12;3.20;52.90
16116;DHT22;8162;47.104;15.432;2022-12-11T09:21:39;3.30;52.60
16116;DHT22;8162;47.104;15.432;2022-12-11T09:24:04;3.10;56.20
16116;DHT22;8162;47.104;15.432;2022-12-11T09:26:30;3.10;56.00
16116;DHT22;8162;47.104;15.432;2022-12-11T09:28:57;3.10;56.10
16116;DHT22;8162;47.104;15.432;2022-12-11T09:31:26;3.10;58.10
16116;DHT22;8162;47.104;15.432;2022-12-11T09:33:55;3.20;53.30
16116;DHT22;8162;47.104;15.432;2022-12-11T09:36:21;3.20;55.70
16116;DHT22;8162;47.104;15.432;2022-12-11T09:38:47;3.30;55.20
16116;DHT22;8162;47.104;15.432;2022-12-11T09:44:01;3.40;50.30
16116;DHT22;8162;47.104;15.432;2022-12-11T09:46:31;3.30;52.10
16116;DHT22;8162;47.104;15.432;2022-12-11T09:48:58;3.30;50.80
16116;DHT22;8162;47.104;15.432;2022-12-11T09:51:45;3.30;52.10
16116;DHT22;8162;47.104;15.432;2022-12-11T09:54:13;3.50;52.00
16116;DHT22;8162;47.104;15.432;2022-12-11T09:56:46;3.50;47.90
16116;DHT22;8162;47.104;15.432;2022-12-11T09:59:22;3.50;50.30
16116;DHT22;8162;47.104;15.432;2022-12-11T10:12:59;3.60;51.80
16116;DHT22;8162;47.104;15.432;2022-12-11T10:15:50;3.60;53.80
16116;DHT22;8162;47.104;15.432;2022-12-11T10:18:19;3.70;52.50
16116;DHT22;8162;47.104;15.432;2022-12-11T10:20:49;3.70;51.40
16116;DHT22;8162;47.104;15.432;2022-12-11T10:23:21;3.70;50.50
16116;DHT22;8162;47.104;15.432;2022-12-11T10:26:06;3.90;49.60
16116;DHT22;8162;47.104;15.432;2022-12-11T10:28:33;3.80;47.30
16116;DHT22;8162;47.104;15.432;2022-12-11T10:33:43;3.90;46.60
16116;DHT22;8162;47.104;15.432;2022-12-11T10:36:12;3.90;48.60
16116;DHT22;8162;47.104;15.432;2022-12-11T10:38:43;3.90;50.00
16116;DHT22;8162;47.104;15.432;2022-12-11T10:41:18;3.90;47.40
16116;DHT22;8162;47.104;15.432;2022-12-11T10:43:48;3.90;45.80
16116;DHT22;8162;47.104;15.432;2022-12-11T10:48:54;4.00;44.80
16116;DHT22;8162;47.104;15.432;2022-12-11T10:51:23;4.00;43.40
16116;DHT22;8162;47.104;15.432;2022-12-11T10:53:54;4.00;43.00
16116;DHT22;8162;47.104;15.432;2022-12-11T10:56:28;4.10;43.00
16116;DHT22;8162;47.104;15.432;2022-12-11T10:58:57;4.10;44.90
16116;DHT22;8162;47.104;15.432;2022-12-11T11:01:28;4.10;47.30
16116;DHT22;8162;47.104;15.432;2022-12-11T11:04:04;4.10;45.90
16116;DHT22;8162;47.104;15.432;2022-12-11T11:06:31;4.10;42.60
16116;DHT22;8162;47.104;15.432;2022-12-11T11:08:59;4.10;44.30
16116;DHT22;8162;47.104;15.432;2022-12-11T11:11:35;4.10;43.90
16116;DHT22;8162;47.104;15.432;2022-12-11T11:14:14;4.10;44.30
16116;DHT22;8162;47.104;15.432;2022-12-11T11:16:42;4.10;46.30
16116;DHT22;8162;47.104;15.432;2022-12-11T11:19:28;4.00;42.80
16116;DHT22;8162;47.104;15.432;2022-12-11T11:22:07;4.10;46.10
16116;DHT22;8162;47.104;15.432;2022-12-11T11:24:40;4.20;44.10
16116;DHT22;8162;47.104;15.432;2022-12-11T11:27:43;4.30;43.70
16116;DHT22;8162;47.104;15.432;2022-12-11T11:30:25;4.40;44.90
16116;DHT22;8162;47.104;15.432;2022-12-11T11:32:55;4.40;42.70
16116;DHT22;8162;47.104;15.432;2022-12-11T11:35:24;4.50;42.70
16116;DHT22;8162;47.104;15.432;2022-12-11T11:38:08;4.40;41.90
16116;DHT22;8162;47.104;15.432;2022-12-11T11:40:49;4.50;41.30
16116;DHT22;8162;47.104;15.432;2022-12-11T11:43:36;4.50;42.40
16116;DHT22;8162;47.104;15.432;2022-12-11T11:46:10;4.60;42.20
16116;DHT22;8162;47.104;15.432;2022-12-11T11:51:37;4.60;42.70
16116;DHT22;8162;47.104;15.432;2022-12-11T11:54:36;4.50;41.90
16116;DHT22;8162;47.104;15.432;2022-12-11T11:57:14;4.70;42.30
16116;DHT22;8162;47.104;15.432;2022-12-11T11:59:49;4.70;40.40
16116;DHT22;8162;47.104;15.432;2022-12-11T12:02:18;4.50;42.60
16116;DHT22;8162;47.104;15.432;2022-12-11T12:04:45;4.50;42.80
16116;DHT22;8162;47.104;15.432;2022-12-11T12:07:44;4.50;43.20
16116;DHT22;8162;47.104;15.432;2022-12-11T12:10:27;4.50;41.70
16116;DHT22;8162;47.104;15.432;2022-12-11T12:15:56;4.50;40.30
16116;DHT22;8162;47.104;15.432;2022-12-11T12:18:45;4.50;43.00
16116;DHT22;8162;47.104;15.432;2022-12-11T12:26:35;4.30;42.50
16116;DHT22;8162;47.104;15.432;2022-12-11T12:40:31;4.20;42.20
16116;DHT22;8162;47.104;15.432;2022-12-11T12:45:56;4.10;41.80
16116;DHT22;8162;47.104;15.432;2022-12-11T12:48:25;4.10;41.60
16116;DHT22;8162;47.104;15.432;2022-12-11T12:50:51;4.00;42.10
16116;DHT22;8162;47.104;15.432;2022-12-11T12:53:27;4.00;41.40
16116;DHT22;8162;47.104;15.432;2022-12-11T12:55:55;4.00;41.40
16116;DHT22;8162;47.104;15.432;2022-12-11T13:01:19;3.90;40.50
16116;DHT22;8162;47.104;15.432;2022-12-11T13:04:01;3.90;41.30
16116;DHT22;8162;47.104;15.432;2022-12-11T13:06:44;3.90;41.20
16116;DHT22;8162;47.104;15.432;2022-12-11T13:11:45;3.90;41.00
16116;DHT22;8162;47.104;15.432;2022-12-11T13:16:50;3.90;40.60
16116;DHT22;8162;47.104;15.432;2022-12-11T13:19:29;3.80;40.60
16116;DHT22;8162;47.104;15.432;2022-12-11T13:27:35;3.80;39.00
16116;DHT22;8162;47.104;15.432;2022-12-11T13:33:02;3.50;39.60
16116;DHT22;8162;47.104;15.432;2022-12-11T13:35:29;3.50;40.90
16116;DHT22;8162;47.104;15.432;2022-12-11T13:38:02;3.50;42.40
16116;DHT22;8162;47.104;15.432;2022-12-11T13:40:36;3.40;41.50
16116;DHT22;8162;47.104;15.432;2022-12-11T13:43:06;3.30;41.80
16116;DHT22;8162;47.104;15.432;2022-12-11T13:45:47;3.30;43.00
16116;DHT22;8162;47.104;15.432;2022-12-11T13:48:27;3.30;42.40
16116;DHT22;8162;47.104;15.432;2022-12-11T13:50:55;3.10;40.90
16116;DHT22;8162;47.104;15.432;2022-12-11T13:53:22;3.00;42.60
16116;DHT22;8162;47.104;15.432;2022-12-11T13:58:22;2.80;43.40
16116;DHT22;8162;47.104;15.432;2022-12-11T14:03:38;2.70;43.30
16116;DHT22;8162;47.104;15.432;2022-12-11T14:06:09;2.70;45.90
16116;DHT22;8162;47.104;15.432;2022-12-11T14:08:37;2.60;45.20
16116;DHT22;8162;47.104;15.432;2022-12-11T14:11:04;2.60;44.60
16116;DHT22;8162;47.104;15.432;2022-12-11T14:13:33;2.60;44.10
16116;DHT22;8162;47.104;15.432;2022-12-11T14:16:00;2.50;45.90
16116;DHT22;8162;47.104;15.432;2022-12-11T14:18:32;2.50;45.00
16116;DHT22;8162;47.104;15.432;2022-12-11T14:21:00;2.50;45.10
16116;DHT22;8162;47.104;15.432;2022-12-11T14:23:31;2.40;45.10
16116;DHT22;8162;47.104;15.432;2022-12-11T14:25:59;2.40;45.50
16116;DHT22;8162;47.104;15.432;2022-12-11T14:28:29;2.40;46.30
16116;DHT22;8162;47.104;15.432;2022-12-11T14:31:00;2.30;45.40
16116;DHT22;8162;47.104;15.432;2022-12-11T14:33:39;2.30;44.80
16116;DHT22;8162;47.104;15.432;2022-12-11T14:36:07;2.30;44.90
16116;DHT22;8162;47.104;15.432;2022-12-11T14:38:56;2.30;45.40
16116;DHT22;8162;47.104;15.432;2022-12-11T14:41:32;2.20;45.70
16116;DHT22;8162;47.104;15.432;2022-12-11T14:44:03;2.20;47.90
16116;DHT22;8162;47.104;15.432;2022-12-11T14:52:22;2.10;47.20
16116;DHT22;8162;47.104;15.432;2022-12-11T14:54:55;2.00;47.20
16116;DHT22;8162;47.104;15.432;2022-12-11T14:57:26;2.00;48.00
16116;DHT22;8162;47.104;15.432;2022-12-11T14:59:54;1.90;47.70
16116;DHT22;8162;47.104;15.432;2022-12-11T15:02:27;1.90;48.20
16116;DHT22;8162;47.104;15.432;2022-12-11T15:05:12;1.90;48.50
16116;DHT22;8162;47.104;15.432;2022-12-11T15:07:42;1.90;48.50
16116;DHT22;8162;47.104;15.432;2022-12-11T15:13:00;1.90;46.90
16116;DHT22;8162;47.104;15.432;2022-12-11T15:15:27;1.80;47.70
16116;DHT22;8162;47.104;15.432;2022-12-11T15:17:54;1.80;47.70
16116;DHT22;8162;47.104;15.432;2022-12-11T15:20:26;1.70;48.30
16116;DHT22;8162;47.104;15.432;2022-12-11T15:22:56;1.70;49.50
16116;DHT22;8162;47.104;15.432;2022-12-11T15:25:25;1.60;50.50
16116;DHT22;8162;47.104;15.432;2022-12-11T15:27:54;1.60;49.60
16116;DHT22;8162;47.104;15.432;2022-12-11T15:35:36;1.50;52.20
16116;DHT22;8162;47.104;15.432;2022-12-11T15:38:03;1.50;56.50
16116;DHT22;8162;47.104;15.432;2022-12-11T15:40:29;1.50;52.50
16116;DHT22;8162;47.104;15.432;2022-12-11T15:42:55;1.50;51.90
16116;DHT22;8162;47.104;15.432;2022-12-11T15:45:24;1.40;52.20
16116;DHT22;8162;47.104;15.432;2022-12-11T15:47:53;1.40;53.10
16116;DHT22;8162;47.104;15.432;2022-12-11T15:50:23;1.40;52.10
16116;DHT22;8162;47.104;15.432;2022-12-11T15:52:50;1.20;52.20
16116;DHT22;8162;47.104;15.432;2022-12-11T15:55:17;1.30;50.70
16116;DHT22;8162;47.104;15.432;2022-12-11T15:57:51;1.20;52.20
16116;DHT22;8162;47.104;15.432;2022-12-11T16:00:19;1.10;53.40
16116;DHT22;8162;47.104;15.432;2022-12-11T16:02:46;1.10;52.20
16116;DHT22;8162;47.104;15.432;2022-12-11T16:05:13;1.20;50.70
16116;DHT22;8162;47.104;15.432;2022-12-11T16:07:39;1.20;51.20
16116;DHT22;8162;47.104;15.432;2022-12-11T16:10:06;1.10;52.70
16116;DHT22;8162;47.104;15.432;2022-12-11T16:12:32;1.10;52.30
16116;DHT22;8162;47.104;15.432;2022-12-11T16:14:57;1.10;53.10
16116;DHT22;8162;47.104;15.432;2022-12-11T16:17:23;1.10;54.70
16116;DHT22;8162;47.104;15.432;2022-12-11T16:19:49;1.10;54.10
16116;DHT22;8162;47.104;15.432;2022-12-11T16:22:15;1.00;53.40
16116;DHT22;8162;47.104;15.432;2022-12-11T16:24:41;1.00;54.70
16116;DHT22;8162;47.104;15.432;2022-12-11T16:27:08;1.00;55.70
16116;DHT22;8162;47.104;15.432;2022-12-11T16:29:38;0.90;55.40
16116;DHT22;8162;47.104;15.432;2022-12-11T16:32:05;0.80;56.20
16116;DHT22;8162;47.104;15.432;2022-12-11T16:34:35;0.80;56.90
16116;DHT22;8162;47.104;15.432;2022-12-11T16:37:04;0.80;57.00
16116;DHT22;8162;47.104;15.432;2022-12-11T16:39:30;0.80;56.50
16116;DHT22;8162;47.104;15.432;2022-12-11T16:41:56;0.80;57.00
16116;DHT22;8162;47.104;15.432;2022-12-11T16:44:24;0.80;57.70
16116;DHT22;8162;47.104;15.432;2022-12-11T16:46:50;0.80;57.70
16116;DHT22;8162;47.104;15.432;2022-12-11T16:49:16;0.80;57.10
16116;DHT22;8162;47.104;15.432;2022-12-11T16:51:42;0.80;57.70
16116;DHT22;8162;47.104;15.432;2022-12-11T16:54:09;0.70;57.70
16116;DHT22;8162;47.104;15.432;2022-12-11T16:56:35;0.60;57.70
16116;DHT22;8162;47.104;15.432;2022-12-11T16:59:02;0.60;57.80
16116;DHT22;8162;47.104;15.432;2022-12-11T17:01:27;0.60;57.90
16116;DHT22;8162;47.104;15.432;2022-12-11T17:03:53;0.60;57.30
16116;DHT22;8162;47.104;15.432;2022-12-11T17:06:19;0.60;57.90
16116;DHT22;8162;47.104;15.432;2022-12-11T17:08:45;0.60;57.60
16116;DHT22;8162;47.104;15.432;2022-12-11T17:11:14;0.60;57.50
16116;DHT22;8162;47.104;15.432;2022-12-11T17:13:41;0.60;56.70
16116;DHT22;8162;47.104;15.432;2022-12-11T17:16:12;0.60;55.90
16116;DHT22;8162;47.104;15.432;2022-12-11T17:18:39;0.60;56.80
16116;DHT22;8162;47.104;15.432;2022-12-11T17:21:07;0.60;55.80
16116;DHT22;8162;47.104;15.432;2022-12-11T17:23:34;0.60;56.20
16116;DHT22;8162;47.104;15.432;2022-12-11T17:26:03;0.70;56.40
16116;DHT22;8162;47.104;15.432;2022-12-11T17:28:30;0.70;56.30
16116;DHT22;8162;47.104;15.432;2022-12-11T17:30:57;0.70;54.70
16116;DHT22;8162;47.104;15.432;2022-12-11T17:33:23;0.80;54.80